Time;durP1;ratioP1;P1;durP2;ratioP2;P2;SDS_P1;SDS_P2;PMS_P1;PMS_P2;Temp;Humidity;BMP_temperature;BMP_pressure;BME280_temperature;BME280_humidity;BME280_pressure;Samples;Min_cycle;Max_cycle;Signal;HPM_P1;HPM_P2
2021/09/19 00:02:11;;;;;;;8.00;6.83;;;14.90;99.90;;;;;;6178016;23;20179;-87
2021/09/19 00:04:38;;;;;;;9.03;8.13;;;14.90;99.90;;;;;;6177366;23;20195;-81
2021/09/19 00:07:04;;;;;;;7.70;6.90;;;14.90;99.90;;;;;;6176579;23;20958;-79
2021/09/19 00:09:32;;;;;;;9.88;8.80;;;14.80;99.90;;;;;;6177292;23;20226;-85
2021/09/19 00:11:58;;;;;;;10.17;9.13;;;14.80;99.90;;;;;;6178011;23;20452;-77
2021/09/19 00:14:25;;;;;;;9.70;8.70;;;14.80;99.90;;;;;;6176821;23;20175;-78
2021/09/19 00:16:52;;;;;;;8.90;8.07;;;14.80;99.90;;;;;;6178044;23;20178;-79
2021/09/19 00:19:21;;;;;;;9.63;8.60;;;14.80;99.90;;;;;;6177228;23;20174;-79
2021/09/19 00:21:47;;;;;;;9.77;8.67;;;14.70;99.90;;;;;;6177175;23;20174;-82
2021/09/19 00:24:16;;;;;;;8.53;7.73;;;14.70;99.90;;;;;;6177213;23;20194;-87
2021/09/19 00:26:43;;;;;;;10.90;8.70;;;14.70;99.90;;;;;;6176645;23;20179;-87
2021/09/19 00:29:10;;;;;;;8.23;7.40;;;14.70;99.90;;;;;;6177891;23;20166;-80
2021/09/19 00:31:36;;;;;;;8.73;7.93;;;14.70;99.90;;;;;;6175836;23;20174;-79
2021/09/19 00:34:03;;;;;;;8.20;7.43;;;14.60;99.90;;;;;;6176733;23;20198;-78
2021/09/19 00:36:31;;;;;;;9.23;8.33;;;14.50;99.90;;;;;;6176561;23;20175;-84
2021/09/19 00:38:58;;;;;;;8.63;7.73;;;14.50;99.90;;;;;;6176671;23;20262;-78
2021/09/19 00:41:25;;;;;;;8.43;7.47;;;14.50;99.90;;;;;;6175390;23;20424;-79
2021/09/19 00:43:52;;;;;;;10.03;9.03;;;14.40;99.90;;;;;;6177347;23;20170;-81
2021/09/19 00:46:18;;;;;;;9.00;8.10;;;14.40;99.90;;;;;;6177204;23;20175;-85
2021/09/19 00:48:45;;;;;;;8.07;7.27;;;14.40;99.90;;;;;;6176029;23;20178;-86
2021/09/19 00:51:12;;;;;;;8.00;7.30;;;14.30;99.90;;;;;;6176909;23;20178;-81
2021/09/19 00:53:41;;;;;;;8.03;7.33;;;14.30;99.90;;;;;;6177103;23;20175;-79
2021/09/19 00:56:08;;;;;;;8.03;7.23;;;14.20;99.90;;;;;;6175747;23;20175;-78
2021/09/19 00:58:36;;;;;;;8.47;7.67;;;14.20;99.90;;;;;;6175111;23;20267;-80
2021/09/19 01:01:03;;;;;;;8.70;7.80;;;14.10;99.90;;;;;;6176577;23;20452;-79
2021/09/19 01:03:30;;;;;;;10.07;9.10;;;14.10;99.90;;;;;;6176056;23;20511;-80
2021/09/19 01:05:58;;;;;;;9.27;8.37;;;14.10;99.90;;;;;;6176584;23;20202;-78
2021/09/19 01:08:25;;;;;;;9.73;8.77;;;14.10;99.90;;;;;;6175118;23;20186;-87
2021/09/19 01:10:53;;;;;;;10.37;9.37;;;14.10;99.90;;;;;;6177873;23;20194;-86
2021/09/19 01:13:21;;;;;;;9.87;8.87;;;14.00;99.90;;;;;;6177422;23;20178;-78
2021/09/19 01:15:49;;;;;;;11.37;10.10;;;14.10;99.90;;;;;;6176049;23;20175;-81
2021/09/19 01:18:17;;;;;;;11.73;10.63;;;14.00;99.90;;;;;;6178032;23;20179;-86
2021/09/19 01:20:45;;;;;;;10.30;9.30;;;14.00;99.90;;;;;;6176768;23;20266;-76
2021/09/19 01:23:13;;;;;;;10.53;9.47;;;14.10;99.90;;;;;;6174521;23;20225;-81
2021/09/19 01:25:43;;;;;;;11.10;10.07;;;14.10;99.90;;;;;;6175554;23;20206;-78
2021/09/19 01:28:10;;;;;;;9.60;8.70;;;14.10;99.90;;;;;;6175478;23;20179;-77
2021/09/19 01:30:38;;;;;;;13.70;12.27;;;14.10;99.90;;;;;;6174646;23;20179;-78
2021/09/19 01:33:06;;;;;;;12.20;10.53;;;14.00;99.90;;;;;;6176537;23;20178;-79
2021/09/19 01:35:33;;;;;;;11.63;10.40;;;14.00;99.90;;;;;;6175545;23;20179;-77
2021/09/19 01:38:00;;;;;;;11.53;10.33;;;14.00;99.90;;;;;;6175837;23;20567;-84
2021/09/19 01:40:27;;;;;;;11.27;10.17;;;14.00;99.90;;;;;;6175659;23;20175;-77
2021/09/19 01:42:56;;;;;;;11.30;10.20;;;14.00;99.90;;;;;;6176788;23;20186;-82
2021/09/19 01:45:23;;;;;;;13.93;12.43;;;14.00;99.90;;;;;;6175271;23;20206;-77
2021/09/19 01:47:51;;;;;;;13.77;12.33;;;14.00;99.90;;;;;;6177185;23;20179;-79
2021/09/19 01:50:20;;;;;;;13.30;12.00;;;14.00;99.90;;;;;;6176570;23;20626;-78
2021/09/19 01:52:47;;;;;;;12.47;11.30;;;14.00;99.90;;;;;;6176835;23;20167;-80
2021/09/19 01:55:14;;;;;;;11.90;10.67;;;14.00;99.90;;;;;;6177663;23;20456;-83
2021/09/19 01:57:41;;;;;;;11.33;10.23;;;14.00;99.90;;;;;;6177327;23;20171;-81
2021/09/19 02:00:10;;;;;;;11.70;10.50;;;14.00;99.90;;;;;;6177554;23;20249;-85
2021/09/19 02:02:38;;;;;;;12.00;10.90;;;13.90;99.90;;;;;;6177191;23;20186;-86
2021/09/19 02:05:06;;;;;;;11.63;10.17;;;13.90;99.90;;;;;;6178014;23;20195;-90
2021/09/19 02:07:35;;;;;;;14.40;12.90;;;13.90;99.90;;;;;;6177465;23;20181;-84
2021/09/19 02:10:03;;;;;;;14.97;12.63;;;13.90;99.90;;;;;;6176571;23;20177;-77
2021/09/19 02:12:29;;;;;;;15.33;13.83;;;13.90;99.90;;;;;;6175840;23;20178;-79
2021/09/19 02:14:56;;;;;;;13.70;12.27;;;13.90;99.90;;;;;;6175924;23;20170;-78
2021/09/19 02:17:24;;;;;;;16.00;14.50;;;13.90;99.90;;;;;;6177170;23;20190;-77
2021/09/19 02:19:51;;;;;;;14.03;12.60;;;13.90;99.90;;;;;;6176201;23;20174;-79
2021/09/19 02:22:18;;;;;;;13.03;11.70;;;13.90;99.90;;;;;;6175573;23;20552;-77
2021/09/19 02:24:44;;;;;;;13.33;11.93;;;13.80;99.90;;;;;;6176053;23;20472;-77
2021/09/19 02:27:11;;;;;;;15.13;12.60;;;13.80;99.90;;;;;;6175177;23;20175;-85
2021/09/19 02:29:38;;;;;;;15.10;13.77;;;13.80;99.90;;;;;;6175314;23;20174;-84
2021/09/19 02:32:06;;;;;;;15.90;14.40;;;13.80;99.90;;;;;;6175887;23;20469;-86
2021/09/19 02:34:34;;;;;;;15.30;13.70;;;13.80;99.90;;;;;;6174768;23;20178;-79
2021/09/19 02:37:01;;;;;;;14.57;13.13;;;13.80;99.90;;;;;;6174857;23;20170;-77
2021/09/19 02:39:28;;;;;;;19.87;16.83;;;13.80;99.90;;;;;;6149026;23;20546;-76
2021/09/19 02:41:55;;;;;;;17.37;15.57;;;13.80;99.90;;;;;;6174741;23;20177;-82
2021/09/19 02:44:21;;;;;;;17.10;15.40;;;13.80;99.90;;;;;;6174840;23;20179;-79
2021/09/19 02:46:48;;;;;;;15.10;13.60;;;13.80;99.90;;;;;;6175634;23;20202;-78
2021/09/19 02:49:16;;;;;;;14.00;12.70;;;13.80;99.90;;;;;;6174746;23;20202;-87
2021/09/19 02:51:44;;;;;;;15.10;13.60;;;13.80;99.90;;;;;;6174865;23;20227;-79
2021/09/19 02:54:11;;;;;;;15.40;13.90;;;13.80;99.90;;;;;;6175170;23;20178;-89
2021/09/19 02:56:38;;;;;;;17.40;15.20;;;13.70;99.90;;;;;;6175492;23;20171;-81
2021/09/19 02:59:05;;;;;;;17.73;15.77;;;13.70;99.90;;;;;;6176321;23;20202;-79
2021/09/19 03:01:32;;;;;;;17.00;15.20;;;13.70;99.90;;;;;;6175874;23;20181;-83
2021/09/19 03:03:58;;;;;;;17.13;15.20;;;13.70;99.90;;;;;;6176815;23;20178;-77
2021/09/19 03:06:26;;;;;;;17.90;16.20;;;13.70;99.90;;;;;;6176419;23;20199;-77
2021/09/19 03:08:54;;;;;;;18.57;16.63;;;13.70;99.90;;;;;;6176666;23;20285;-81
2021/09/19 03:11:22;;;;;;;18.43;16.53;;;13.70;99.90;;;;;;6176509;23;20175;-79
2021/09/19 03:13:48;;;;;;;20.60;18.40;;;13.70;99.90;;;;;;6176567;23;20171;-77
2021/09/19 03:16:15;;;;;;;19.60;17.60;;;13.70;99.90;;;;;;6175000;23;20332;-77
2021/09/19 03:18:42;;;;;;;18.97;17.07;;;13.80;99.90;;;;;;6176251;23;20643;-82
2021/09/19 03:21:09;;;;;;;17.13;15.37;;;13.70;99.90;;;;;;6177086;23;20178;-76
2021/09/19 03:23:36;;;;;;;20.70;18.50;;;13.70;99.90;;;;;;6176324;23;20167;-77
2021/09/19 03:26:04;;;;;;;18.63;16.63;;;13.80;99.90;;;;;;6177476;23;20199;-79
2021/09/19 03:28:31;;;;;;;22.63;19.07;;;13.70;99.90;;;;;;6177126;23;20181;-77
2021/09/19 03:30:58;;;;;;;19.47;17.53;;;13.80;99.90;;;;;;6176612;23;20179;-76
2021/09/19 03:33:25;;;;;;;21.27;18.83;;;13.80;99.90;;;;;;6177324;23;20181;-78
2021/09/19 03:35:52;;;;;;;23.00;20.43;;;13.80;99.90;;;;;;6176972;23;20182;-78
2021/09/19 03:38:19;;;;;;;20.33;17.50;;;13.80;99.90;;;;;;6176482;23;20186;-77
2021/09/19 03:40:46;;;;;;;22.87;19.07;;;13.80;99.90;;;;;;6176244;23;20178;-94
2021/09/19 03:43:14;;;;;;;21.53;19.27;;;13.80;99.90;;;;;;6175926;23;20186;-93
2021/09/19 03:45:41;;;;;;;21.27;18.40;;;13.90;99.90;;;;;;6174891;23;20224;-85
2021/09/19 03:48:10;;;;;;;21.67;19.37;;;13.80;99.90;;;;;;6176780;23;20167;-77
2021/09/19 03:50:37;;;;;;;20.03;17.93;;;13.90;99.90;;;;;;6175632;23;20167;-78
2021/09/19 03:53:04;;;;;;;20.73;18.53;;;13.90;99.90;;;;;;6175522;23;20471;-82
2021/09/19 03:55:31;;;;;;;21.20;18.50;;;13.80;99.90;;;;;;6175546;23;20171;-82
2021/09/19 03:58:00;;;;;;;20.07;18.03;;;13.80;99.90;;;;;;6175077;23;20175;-84
2021/09/19 04:00:28;;;;;;;23.90;20.90;;;13.80;99.90;;;;;;6175946;23;20285;-78
2021/09/19 04:02:55;;;;;;;24.33;20.53;;;13.80;99.90;;;;;;6176675;23;20181;-80
2021/09/19 04:05:22;;;;;;;23.80;20.87;;;13.80;99.90;;;;;;6175655;23;20205;-77
2021/09/19 04:07:49;;;;;;;26.37;23.03;;;13.80;99.90;;;;;;6176427;23;20182;-80
2021/09/19 04:10:17;;;;;;;22.63;20.20;;;13.80;99.90;;;;;;6177596;23;20179;-87
2021/09/19 04:12:43;;;;;;;24.00;20.53;;;13.80;99.90;;;;;;6177493;23;20178;-88
2021/09/19 04:15:11;;;;;;;19.97;17.80;;;13.80;99.90;;;;;;6177183;23;20450;-79
2021/09/19 04:17:40;;;;;;;23.37;19.57;;;13.80;99.90;;;;;;6178987;23;20475;-78
2021/09/19 04:20:08;;;;;;;22.63;18.97;;;13.80;99.90;;;;;;6178102;23;20185;-78
2021/09/19 04:22:35;;;;;;;19.67;17.67;;;13.80;99.90;;;;;;6178514;23;20333;-81
2021/09/19 04:25:02;;;;;;;22.73;19.90;;;13.80;99.90;;;;;;6178679;23;20170;-80
2021/09/19 04:27:29;;;;;;;20.53;18.43;;;13.80;99.90;;;;;;6176617;23;20175;-85
2021/09/19 04:29:56;;;;;;;22.37;19.47;;;13.70;99.90;;;;;;6179277;23;20186;-85
2021/09/19 04:32:22;;;;;;;21.87;19.43;;;13.70;99.90;;;;;;6180751;23;20175;-83
2021/09/19 04:34:50;;;;;;;20.30;18.13;;;13.70;99.90;;;;;;6181639;23;20189;-94
2021/09/19 04:37:18;;;;;;;20.47;17.47;;;13.70;99.90;;;;;;6181424;23;20175;-93
2021/09/19 04:39:46;;;;;;;22.27;19.97;;;13.70;99.90;;;;;;6177765;23;20174;-86
2021/09/19 04:42:14;;;;;;;20.87;18.67;;;13.70;99.90;;;;;;6179067;23;20182;-92
2021/09/19 04:44:41;;;;;;;20.03;17.83;;;13.70;99.90;;;;;;6177827;23;20213;-85
2021/09/19 04:47:08;;;;;;;18.57;16.70;;;13.70;99.90;;;;;;6179098;23;20195;-91
2021/09/19 04:49:35;;;;;;;18.30;15.77;;;13.70;99.90;;;;;;6179874;23;20182;-93
2021/09/19 04:52:04;;;;;;;18.63;16.40;;;13.60;99.90;;;;;;6179540;23;20654;-95
2021/09/19 04:54:31;;;;;;;21.57;18.93;;;13.60;99.90;;;;;;6178367;23;20167;-91
2021/09/19 04:56:57;;;;;;;21.00;18.70;;;13.60;99.90;;;;;;6182009;23;20182;-93
2021/09/19 04:59:24;;;;;;;21.90;19.60;;;13.60;99.90;;;;;;6180146;23;20211;-91
2021/09/19 05:01:51;;;;;;;19.40;16.90;;;13.50;99.90;;;;;;6181850;23;20175;-81
2021/09/19 05:04:18;;;;;;;25.60;19.80;;;13.50;99.90;;;;;;6182282;23;20170;-91
2021/09/19 05:06:45;;;;;;;19.73;17.23;;;13.50;99.90;;;;;;6181810;23;20208;-94
2021/09/19 05:09:13;;;;;;;21.53;19.17;;;13.50;99.90;;;;;;6181667;23;20501;-93
2021/09/19 05:11:40;;;;;;;19.57;17.47;;;13.50;99.90;;;;;;6181273;23;20189;-92
2021/09/19 05:14:07;;;;;;;18.57;16.47;;;13.50;99.90;;;;;;6181638;23;20173;-84
2021/09/19 05:16:34;;;;;;;24.20;20.43;;;13.50;99.90;;;;;;6180939;23;20189;-92
2021/09/19 05:19:01;;;;;;;20.40;18.20;;;13.50;99.90;;;;;;6180919;23;20277;-91
2021/09/19 05:21:27;;;;;;;19.53;17.53;;;13.50;99.90;;;;;;6180923;23;20175;-92
2021/09/19 05:23:54;;;;;;;21.77;18.77;;;13.50;99.90;;;;;;6182596;23;20451;-92
2021/09/19 05:26:22;;;;;;;19.87;17.67;;;13.50;99.90;;;;;;6180866;23;20198;-86
2021/09/19 05:28:49;;;;;;;18.60;16.57;;;13.50;99.90;;;;;;6180767;23;20386;-92
2021/09/19 05:31:16;;;;;;;19.83;17.73;;;13.50;99.90;;;;;;6180946;23;20179;-88
2021/09/19 05:33:45;;;;;;;22.57;18.83;;;13.50;99.90;;;;;;6181000;23;20167;-88
2021/09/19 05:36:12;;;;;;;19.10;17.07;;;13.50;99.90;;;;;;6181092;23;20182;-92
2021/09/19 05:38:39;;;;;;;17.20;14.97;;;13.50;99.90;;;;;;6182255;23;20169;-90
2021/09/19 05:41:06;;;;;;;18.13;16.23;;;13.50;99.90;;;;;;6181166;23;20229;-91
2021/09/19 05:43:34;;;;;;;18.97;16.97;;;13.50;99.90;;;;;;6180743;23;20183;-91
2021/09/19 05:46:01;;;;;;;18.30;15.43;;;13.50;99.90;;;;;;6180806;23;20199;-92
2021/09/19 05:48:28;;;;;;;16.53;14.70;;;13.50;99.90;;;;;;6180433;23;20587;-93
2021/09/19 05:50:54;;;;;;;17.37;15.50;;;13.40;99.90;;;;;;6177196;23;20212;-91
2021/09/19 05:53:21;;;;;;;17.77;15.87;;;13.40;99.90;;;;;;6179150;23;20175;-88
2021/09/19 05:55:48;;;;;;;19.10;16.80;;;13.40;99.90;;;;;;6179534;23;20182;-82
2021/09/19 05:58:15;;;;;;;16.87;15.07;;;13.40;99.90;;;;;;6178371;23;20178;-82
2021/09/19 06:00:43;;;;;;;20.40;16.53;;;13.40;99.90;;;;;;6177075;23;20194;-82
2021/09/19 06:03:10;;;;;;;21.20;18.03;;;13.40;99.90;;;;;;6176976;23;20182;-79
2021/09/19 06:05:36;;;;;;;23.97;18.00;;;13.40;99.90;;;;;;6176510;23;20170;-87
2021/09/19 06:08:04;;;;;;;21.03;17.60;;;13.40;99.90;;;;;;6178581;23;20563;-78
2021/09/19 06:10:31;;;;;;;20.37;18.17;;;13.40;99.90;;;;;;6177747;23;20446;-77
2021/09/19 06:12:57;;;;;;;18.97;16.57;;;13.50;99.90;;;;;;6175679;23;20442;-88
2021/09/19 06:15:24;;;;;;;20.20;17.67;;;13.50;99.90;;;;;;6175622;23;20170;-84
2021/09/19 06:17:52;;;;;;;19.37;16.87;;;13.50;99.90;;;;;;6176473;23;20175;-79
2021/09/19 06:20:19;;;;;;;19.13;16.73;;;13.50;99.90;;;;;;6176182;23;20576;-77
2021/09/19 06:22:46;;;;;;;20.50;17.83;;;13.60;99.90;;;;;;6176532;23;20442;-76
2021/09/19 06:25:13;;;;;;;19.13;16.17;;;13.60;99.90;;;;;;6177210;23;20576;-78
2021/09/19 06:27:40;;;;;;;24.10;17.73;;;13.70;99.90;;;;;;6177249;23;20209;-77
2021/09/19 06:30:09;;;;;;;18.20;15.80;;;13.80;99.90;;;;;;6175544;23;20257;-84
2021/09/19 06:32:36;;;;;;;21.77;18.73;;;13.80;99.90;;;;;;6177465;23;20183;-81
2021/09/19 06:35:05;;;;;;;19.47;17.37;;;13.90;99.90;;;;;;6177617;23;20186;-86
2021/09/19 06:37:32;;;;;;;18.13;16.10;;;13.90;99.90;;;;;;6177427;23;20175;-83
2021/09/19 06:39:59;;;;;;;18.40;16.37;;;14.00;99.90;;;;;;6177443;23;20861;-90
2021/09/19 06:42:26;;;;;;;19.27;17.03;;;14.10;99.90;;;;;;6176486;23;20171;-80
2021/09/19 06:44:52;;;;;;;17.27;15.40;;;14.10;99.90;;;;;;6177613;23;20182;-80
2021/09/19 06:47:20;;;;;;;17.47;15.67;;;14.20;99.90;;;;;;6176516;23;20199;-91
2021/09/19 06:49:47;;;;;;;21.23;17.87;;;14.30;99.90;;;;;;6177883;23;20547;-78
2021/09/19 06:52:15;;;;;;;16.67;14.47;;;14.30;99.90;;;;;;6177488;23;20174;-80
2021/09/19 06:58:04;;;;;;;18.17;16.30;;;14.50;99.90;;;;;;6174165;23;20282;-90
2021/09/19 07:00:31;;;;;;;17.37;15.40;;;14.50;99.90;;;;;;6176949;23;20267;-88
2021/09/19 07:02:58;;;;;;;16.33;14.63;;;14.60;99.90;;;;;;6179421;23;20170;-89
2021/09/19 07:05:24;;;;;;;16.87;14.57;;;14.60;99.90;;;;;;6180186;23;20178;-93
2021/09/19 07:07:52;;;;;;;16.83;15.13;;;14.60;99.90;;;;;;6179552;23;20592;-85
2021/09/19 07:10:19;;;;;;;16.20;14.50;;;14.60;99.90;;;;;;6178442;23;20167;-82
2021/09/19 07:19:51;;;;;;;15.60;14.00;;;14.80;99.90;;;;;;6127154;23;20206;-79
2021/09/19 07:22:18;;;;;;;16.57;14.97;;;14.80;99.90;;;;;;6178659;23;20159;-91
2021/09/19 07:24:46;;;;;;;14.80;13.27;;;14.90;99.90;;;;;;6178103;23;20178;-85
2021/09/19 07:27:13;;;;;;;15.67;14.07;;;14.90;99.90;;;;;;6178988;23;20195;-83
2021/09/19 07:29:40;;;;;;;16.90;14.90;;;14.90;99.90;;;;;;6178357;23;20178;-79
2021/09/19 07:32:09;;;;;;;15.40;13.90;;;15.00;99.90;;;;;;6178326;23;20182;-83
2021/09/19 07:34:36;;;;;;;16.57;14.10;;;15.00;99.90;;;;;;6179137;23;20729;-85
2021/09/19 07:37:05;;;;;;;14.03;12.63;;;15.00;99.90;;;;;;6177490;23;20182;-86
2021/09/19 07:39:33;;;;;;;16.03;13.57;;;15.10;99.90;;;;;;6178211;23;20532;-86
2021/09/19 07:42:01;;;;;;;17.47;13.77;;;15.10;99.90;;;;;;6180458;23;20409;-83
2021/09/19 07:44:29;;;;;;;15.73;14.20;;;15.20;99.90;;;;;;6179840;23;20171;-82
2021/09/19 07:46:56;;;;;;;13.70;12.25;;;15.20;99.90;;;;;;6180208;23;20195;-84
2021/09/19 07:49:23;;;;;;;15.23;13.73;;;15.20;99.90;;;;;;6180172;23;20177;-85
2021/09/19 07:51:50;;;;;;;13.20;12.00;;;15.30;99.90;;;;;;6180653;23;20193;-81
2021/09/19 07:54:19;;;;;;;12.52;11.25;;;15.30;99.90;;;;;;6181031;23;20666;-81
2021/09/19 07:56:46;;;;;;;14.53;13.13;;;15.30;99.90;;;;;;6180184;23;20763;-87
2021/09/19 07:59:14;;;;;;;14.37;12.97;;;15.40;99.90;;;;;;6180634;23;20203;-84
2021/09/19 08:01:41;;;;;;;13.25;11.85;;;15.50;99.90;;;;;;6182363;23;20178;-87
2021/09/19 08:04:08;;;;;;;14.05;12.60;;;15.50;99.90;;;;;;6181477;23;20178;-82
2021/09/19 08:06:34;;;;;;;12.93;11.68;;;15.50;99.90;;;;;;6181817;23;20191;-89
2021/09/19 08:09:09;;;;;;;12.65;11.35;;;15.60;99.90;;;;;;6183830;23;20167;-94
2021/09/19 08:11:35;;;;;;;13.55;12.13;;;15.60;99.90;;;;;;6182415;23;20219;-95
2021/09/19 08:14:06;;;;;;;13.25;11.95;;;15.70;99.90;;;;;;6182963;23;20171;-89
2021/09/19 08:16:36;;;;;;;10.30;9.15;;;15.70;99.90;;;;;;6183691;23;20174;-87
2021/09/19 08:19:03;;;;;;;12.32;11.20;;;15.80;99.90;;;;;;6183491;23;20178;-94
2021/09/19 08:21:30;;;;;;;11.57;10.45;;;15.90;99.90;;;;;;6182228;23;20171;-92
2021/09/19 08:23:56;;;;;;;11.90;10.70;;;16.00;99.90;;;;;;6180017;23;20631;-80
2021/09/19 08:26:24;;;;;;;11.38;10.23;;;16.00;99.90;;;;;;6177994;23;20386;-87
2021/09/19 08:28:50;;;;;;;10.63;9.63;;;16.20;99.90;;;;;;6180371;23;20185;-87
2021/09/19 08:31:17;;;;;;;12.32;11.18;;;16.30;99.90;;;;;;6182003;23;20250;-90
2021/09/19 08:33:46;;;;;;;12.18;9.68;;;16.40;99.90;;;;;;6186576;23;20226;-90
2021/09/19 08:36:13;;;;;;;9.80;8.88;;;16.50;99.90;;;;;;6188038;23;20577;-82
2021/09/19 08:38:39;;;;;;;9.32;8.43;;;16.50;99.90;;;;;;6184562;23;20175;-82
2021/09/19 08:41:06;;;;;;;9.75;8.80;;;16.60;99.90;;;;;;6186785;23;20174;-88
2021/09/19 08:43:33;;;;;;;8.57;7.82;;;16.70;99.90;;;;;;6188397;23;20181;-84
2021/09/19 08:46:00;;;;;;;9.73;8.68;;;16.70;99.90;;;;;;6182330;23;20651;-81
2021/09/19 08:48:28;;;;;;;8.48;7.68;;;16.80;99.90;;;;;;6180945;23;20210;-80
2021/09/19 08:50:59;;;;;;;8.45;7.65;;;16.80;99.90;;;;;;6180729;23;20568;-79
2021/09/19 08:53:27;;;;;;;8.75;7.85;;;16.90;99.90;;;;;;6181609;23;20170;-77
2021/09/19 08:55:54;;;;;;;8.98;8.18;;;17.10;99.90;;;;;;6180751;23;20285;-84
2021/09/19 08:58:21;;;;;;;8.57;7.78;;;17.30;99.90;;;;;;6180134;23;20205;-80
2021/09/19 09:00:49;;;;;;;8.85;7.07;;;17.40;99.90;;;;;;6183074;23;20202;-87
2021/09/19 09:03:16;;;;;;;7.90;7.10;;;17.40;99.90;;;;;;6182255;23;20175;-80
2021/09/19 09:05:43;;;;;;;7.93;7.13;;;17.50;99.90;;;;;;6178201;23;20174;-79
2021/09/19 09:08:13;;;;;;;8.13;7.13;;;17.60;99.90;;;;;;6176980;23;20201;-85
2021/09/19 09:10:42;;;;;;;7.07;6.20;;;17.70;99.90;;;;;;6177988;23;20197;-85
2021/09/19 09:13:11;;;;;;;7.68;6.72;;;17.80;99.90;;;;;;6179136;23;20189;-89
2021/09/19 09:15:43;;;;;;;6.63;6.03;;;17.90;99.90;;;;;;6178828;23;20178;-89
2021/09/19 09:18:13;;;;;;;7.50;6.70;;;18.00;99.90;;;;;;6177945;23;20838;-81
2021/09/19 09:20:51;;;;;;;8.00;5.97;;;18.20;99.90;;;;;;6178863;23;20166;-83
2021/09/19 09:23:24;;;;;;;6.70;5.95;;;18.40;99.90;;;;;;6178262;23;20170;-79
2021/09/19 09:26:20;;;;;;;6.47;5.88;;;18.60;99.90;;;;;;6177334;23;20163;-84
2021/09/19 09:28:50;;;;;;;5.82;5.30;;;18.80;99.90;;;;;;6176247;23;20310;-83
2021/09/19 09:31:32;;;;;;;6.28;5.70;;;19.00;99.90;;;;;;6176227;23;20572;-85
2021/09/19 09:34:09;;;;;;;6.82;6.07;;;19.20;99.90;;;;;;6178317;23;20189;-83
2021/09/19 09:36:42;;;;;;;6.30;5.47;;;19.30;99.90;;;;;;6176119;23;20162;-80
2021/09/19 09:39:33;;;;;;;5.65;5.15;;;19.30;99.90;;;;;;6175050;23;20198;-79
2021/09/19 09:42:03;;;;;;;5.53;5.10;;;19.50;99.90;;;;;;6177367;23;20528;-80
2021/09/19 09:44:38;;;;;;;5.80;5.20;;;19.60;99.90;;;;;;6176679;23;20190;-78
2021/09/19 09:47:07;;;;;;;5.53;4.95;;;19.80;99.90;;;;;;6177635;23;20186;-85
2021/09/19 09:49:46;;;;;;;6.18;5.15;;;19.90;99.90;;;;;;6178189;23;20178;-93
2021/09/19 09:52:14;;;;;;;5.57;5.13;;;20.20;99.90;;;;;;6179890;23;20170;-83
2021/09/19 09:54:50;;;;;;;4.88;4.47;;;20.30;99.90;;;;;;6178648;23;20174;-86
2021/09/19 09:57:48;;;;;;;5.45;4.95;;;20.50;99.90;;;;;;6178834;23;20173;-88
2021/09/19 10:00:17;;;;;;;4.82;4.43;;;20.60;99.90;;;;;;6177378;23;20576;-82
2021/09/19 10:02:45;;;;;;;7.13;6.43;;;20.60;99.90;;;;;;6176608;23;20258;-82
2021/09/19 10:05:14;;;;;;;5.97;5.28;;;20.60;99.90;;;;;;6176487;23;20197;-83
2021/09/19 10:07:43;;;;;;;4.90;4.50;;;20.50;99.90;;;;;;6179967;23;20209;-83
2021/09/19 10:10:13;;;;;;;4.25;3.85;;;20.50;99.90;;;;;;6178454;23;20201;-84
2021/09/19 10:12:40;;;;;;;3.72;3.42;;;20.70;99.90;;;;;;6177156;23;20185;-81
2021/09/19 10:15:09;;;;;;;3.50;3.20;;;20.80;99.90;;;;;;6178545;23;20171;-88
2021/09/19 10:17:37;;;;;;;6.68;5.72;;;21.00;99.90;;;;;;6177275;23;20170;-85
2021/09/19 10:20:06;;;;;;;3.88;3.58;;;21.30;99.90;;;;;;6175943;23;20190;-85
2021/09/19 10:22:36;;;;;;;4.65;4.25;;;21.50;99.90;;;;;;6176329;23;20178;-78
2021/09/19 10:25:04;;;;;;;4.28;3.88;;;21.50;99.90;;;;;;6176842;23;20167;-87
2021/09/19 10:27:35;;;;;;;4.07;3.78;;;21.50;99.90;;;;;;6175577;23;20634;-85
2021/09/19 10:30:06;;;;;;;4.50;4.05;;;21.50;99.90;;;;;;6175646;23;20171;-88
2021/09/19 10:32:34;;;;;;;4.90;4.50;;;21.70;99.90;;;;;;6175867;23;20167;-87
2021/09/19 10:35:01;;;;;;;4.88;4.43;;;21.60;99.90;;;;;;6175993;23;20480;-80
2021/09/19 10:37:52;;;;;;;6.93;5.40;;;21.70;99.90;;;;;;6176679;23;20441;-79
2021/09/19 10:40:34;;;;;;;5.32;4.82;;;21.80;99.90;;;;;;6175668;23;20254;-86
2021/09/19 10:43:03;;;;;;;4.38;4.07;;;22.00;99.90;;;;;;6177619;23;20179;-88
2021/09/19 10:45:38;;;;;;;4.38;3.92;;;22.20;99.90;;;;;;6176116;23;20173;-80
2021/09/19 10:48:14;;;;;;;5.80;4.35;;;22.30;99.90;;;;;;6177260;23;20190;-86
2021/09/19 10:50:42;;;;;;;5.57;5.05;;;22.40;99.90;;;;;;6176962;23;20174;-82
2021/09/19 10:53:21;;;;;;;4.55;4.15;;;22.40;99.90;;;;;;6176461;23;20244;-82
2021/09/19 10:55:52;;;;;;;5.60;5.10;;;22.70;99.90;;;;;;6174959;23;20257;-87
2021/09/19 10:58:24;;;;;;;5.32;4.30;;;22.60;99.90;;;;;;6176569;23;20177;-81
2021/09/19 11:01:10;;;;;;;5.20;3.97;;;22.40;99.90;;;;;;6175319;23;20452;-79
2021/09/19 11:03:38;;;;;;;4.28;3.88;;;22.60;99.90;;;;;;6175997;23;20269;-83
2021/09/19 11:06:05;;;;;;;4.75;4.35;;;22.70;99.90;;;;;;6176595;23;20170;-88
2021/09/19 11:08:40;;;;;;;7.68;4.47;;;22.70;99.90;;;;;;6174923;23;20724;-85
2021/09/19 11:11:21;;;;;;;3.78;3.47;;;22.70;99.90;;;;;;6177247;23;20171;-78
2021/09/19 11:13:56;;;;;;;4.18;3.78;;;22.60;99.90;;;;;;6177239;23;20175;-87
2021/09/19 11:16:41;;;;;;;3.15;2.85;;;22.90;99.90;;;;;;6177993;23;20170;-82
2021/09/19 11:19:11;;;;;;;4.05;3.58;;;23.00;99.90;;;;;;6179410;23;20162;-81
2021/09/19 11:21:42;;;;;;;3.88;3.47;;;23.10;99.90;;;;;;6178415;23;20287;-86
2021/09/19 11:24:12;;;;;;;3.50;3.20;;;23.20;99.90;;;;;;6179843;23;20215;-82
2021/09/19 11:26:42;;;;;;;3.63;3.33;;;23.30;99.90;;;;;;6179870;23;20207;-84
2021/09/19 11:29:13;;;;;;;3.50;3.20;;;23.30;99.90;;;;;;6179177;23;20202;-84
2021/09/19 11:31:40;;;;;;;5.20;4.15;;;23.30;99.90;;;;;;6178478;23;20190;-86
2021/09/19 11:34:09;;;;;;;4.05;3.75;;;23.10;99.90;;;;;;6180248;23;20179;-85
2021/09/19 11:36:41;;;;;;;4.45;4.05;;;23.10;99.90;;;;;;6179765;23;20167;-86
2021/09/19 11:39:08;;;;;;;4.00;3.65;;;23.10;99.90;;;;;;6180028;23;20850;-80
2021/09/19 11:41:35;;;;;;;5.28;4.47;;;23.30;99.90;;;;;;6180753;23;20239;-87
2021/09/19 11:44:03;;;;;;;3.95;3.63;;;23.10;99.90;;;;;;6180816;23;20445;-78
2021/09/19 11:46:34;;;;;;;4.35;3.95;;;23.00;99.90;;;;;;6180430;23;20445;-77
2021/09/19 11:49:00;;;;;;;4.25;3.85;;;23.20;99.90;;;;;;6178525;23;20214;-83
2021/09/19 11:51:27;;;;;;;4.90;4.50;;;23.20;99.90;;;;;;6180965;23;20183;-84
2021/09/19 11:53:57;;;;;;;4.55;4.18;;;23.00;99.90;;;;;;6181537;23;20174;-91
2021/09/19 11:56:26;;;;;;;5.22;4.57;;;23.10;99.90;;;;;;6177472;23;20275;-79
2021/09/19 11:58:54;;;;;;;3.90;3.55;;;23.00;99.90;;;;;;6177802;23;20588;-84
2021/09/19 12:01:26;;;;;;;3.78;3.47;;;23.00;99.90;;;;;;6179076;23;20167;-82
2021/09/19 12:03:54;;;;;;;4.43;4.03;;;23.00;99.90;;;;;;6178449;23;20167;-81
2021/09/19 12:06:21;;;;;;;4.47;4.07;;;22.90;99.90;;;;;;6178618;23;20178;-81
2021/09/19 12:08:50;;;;;;;4.40;3.97;;;22.80;99.90;;;;;;6178806;23;20198;-82
2021/09/19 12:11:17;;;;;;;4.93;3.78;;;22.80;99.90;;;;;;6179701;23;20179;-90
2021/09/19 12:13:49;;;;;;;4.00;3.60;;;22.90;99.90;;;;;;6179205;23;20183;-80
2021/09/19 12:16:19;;;;;;;3.70;3.40;;;23.00;99.90;;;;;;6178636;23;20438;-88
2021/09/19 12:18:47;;;;;;;4.25;3.85;;;22.90;99.90;;;;;;6179004;23;20198;-81
2021/09/19 12:21:18;;;;;;;4.95;3.53;;;23.00;99.90;;;;;;6179024;23;20181;-84
2021/09/19 12:23:46;;;;;;;3.75;3.45;;;23.10;99.90;;;;;;6179505;23;20174;-88
2021/09/19 12:26:20;;;;;;;4.30;3.90;;;23.20;99.90;;;;;;6179156;23;20186;-90
2021/09/19 12:28:49;;;;;;;4.22;3.70;;;23.30;99.90;;;;;;6180835;23;20970;-92
2021/09/19 12:31:35;;;;;;;4.68;3.25;;;23.10;99.90;;;;;;6178280;23;20426;-79
2021/09/19 12:34:02;;;;;;;4.47;4.07;;;23.10;99.90;;;;;;6177668;23;20170;-87
2021/09/19 12:36:30;;;;;;;4.50;4.10;;;22.90;99.90;;;;;;6177259;23;20178;-92
2021/09/19 12:39:00;;;;;;;4.90;4.38;;;22.80;99.90;;;;;;6179301;22;20183;-89
2021/09/19 12:41:27;;;;;;;4.30;3.88;;;22.70;99.90;;;;;;6177437;23;20163;-84
2021/09/19 12:43:58;;;;;;;6.55;5.95;;;22.70;99.90;;;;;;6177442;23;20177;-83
2021/09/19 12:46:24;;;;;;;6.35;5.85;;;22.60;99.90;;;;;;6175199;23;20174;-80
2021/09/19 12:48:51;;;;;;;4.65;4.25;;;22.60;99.90;;;;;;6176155;23;20198;-82
2021/09/19 12:51:18;;;;;;;4.70;3.45;;;22.50;99.90;;;;;;6176205;23;20174;-88
2021/09/19 12:53:48;;;;;;;4.47;4.07;;;22.70;99.90;;;;;;6176095;23;20198;-86